Time;durP1;ratioP1;P1;durP2;ratioP2;P2;SDS_P1;SDS_P2;PMS_P1;PMS_P2;Temp;Humidity;BMP_temperature;BMP_pressure;BME280_temperature;BME280_humidity;BME280_pressure;Samples;Min_cycle;Max_cycle;Signal;HPM_P1;HPM_P2
2023/04/21 00:03:13;;;;;;;6.53;3.45;;;14.60;84.70;;;;;;10867209;32;20015;-71
2023/04/21 00:09:17;;;;;;;6.12;3.87;;;14.70;84.60;;;;;;10867192;32;20377;-71
2023/04/21 00:15:21;;;;;;;4.37;2.78;;;14.70;84.50;;;;;;10852360;32;20024;-71
2023/04/21 00:21:23;;;;;;;3.72;2.92;;;14.70;84.50;;;;;;10866254;32;20054;-71
2023/04/21 00:27:25;;;;;;;6.95;3.92;;;14.70;84.40;;;;;;10866760;32;20086;-70
2023/04/21 00:33:27;;;;;;;3.28;2.47;;;14.60;84.40;;;;;;10866790;32;20028;-71
2023/04/21 00:39:30;;;;;;;3.65;2.15;;;14.60;84.50;;;;;;10865279;32;20047;-72
2023/04/21 00:45:32;;;;;;;5.22;3.72;;;14.60;84.60;;;;;;10867143;32;20027;-71
2023/04/21 00:51:36;;;;;;;6.93;5.00;;;14.60;84.80;;;;;;10853951;32;20053;-71
2023/04/21 00:57:38;;;;;;;4.35;2.75;;;14.60;84.90;;;;;;10873010;32;20054;-71
2023/04/21 01:03:41;;;;;;;5.80;3.80;;;14.60;84.90;;;;;;10860132;32;20020;-70
2023/04/21 01:09:44;;;;;;;6.55;4.43;;;14.60;84.80;;;;;;10872022;32;20015;-71
2023/04/21 01:15:47;;;;;;;6.65;3.92;;;14.60;84.70;;;;;;10853283;32;20027;-71
2023/04/21 01:21:49;;;;;;;6.32;4.47;;;14.60;84.70;;;;;;10857678;32;20058;-71
2023/04/21 01:28:02;;;;;;;4.12;3.42;;;14.60;84.70;;;;;;10870758;32;20008;-71
2023/04/21 01:34:06;;;;;;;4.07;2.97;;;14.70;84.70;;;;;;10871093;32;20066;-71
2023/04/21 01:40:40;;;;;;;4.25;2.20;;;14.60;84.80;;;;;;10871475;32;20019;-71
2023/04/21 01:47:26;;;;;;;4.10;2.72;;;14.60;84.70;;;;;;10870833;32;20046;-71
2023/04/21 01:53:28;;;;;;;5.53;3.83;;;14.60;84.60;;;;;;10870169;32;20050;-72
2023/04/21 01:59:30;;;;;;;5.20;2.53;;;14.50;84.60;;;;;;10870357;32;20028;-72
2023/04/21 02:05:32;;;;;;;3.67;2.37;;;14.50;84.70;;;;;;10855504;32;20078;-71
2023/04/21 02:11:34;;;;;;;4.70;2.60;;;14.50;84.90;;;;;;10855579;32;20078;-71
2023/04/21 02:17:36;;;;;;;5.72;3.15;;;14.50;85.00;;;;;;10868667;32;20386;-71
2023/04/21 02:23:39;;;;;;;2.50;1.90;;;14.50;85.10;;;;;;10868589;32;20020;-71
2023/04/21 02:29:48;;;;;;;5.18;3.22;;;14.40;85.20;;;;;;10869556;32;20070;-71
2023/04/21 02:35:50;;;;;;;4.03;1.85;;;14.40;85.20;;;;;;10869169;32;20408;-71
2023/04/21 02:41:52;;;;;;;1.83;1.45;;;14.40;85.00;;;;;;10863533;32;20066;-71
2023/04/21 02:47:57;;;;;;;2.95;1.85;;;14.40;85.00;;;;;;10867166;32;20019;-71
2023/04/21 02:54:03;;;;;;;2.95;1.62;;;14.40;84.90;;;;;;10867040;32;20050;-71
2023/04/21 03:00:08;;;;;;;4.80;3.00;;;14.40;84.90;;;;;;10866732;32;20020;-71
2023/04/21 03:06:10;;;;;;;2.87;1.87;;;14.30;84.80;;;;;;10866757;32;20008;-71
2023/04/21 03:12:13;;;;;;;3.25;2.30;;;14.30;84.80;;;;;;10866046;32;20019;-71
2023/04/21 03:18:16;;;;;;;3.03;1.98;;;14.30;84.80;;;;;;10866215;32;20019;-71
2023/04/21 03:24:18;;;;;;;3.30;2.65;;;14.30;84.80;;;;;;10866629;32;20012;-71
2023/04/21 03:30:21;;;;;;;1.73;1.20;;;14.30;84.80;;;;;;10867080;32;20007;-71
2023/04/21 03:36:25;;;;;;;2.60;1.75;;;14.30;84.70;;;;;;10866084;32;20394;-71
2023/04/21 03:42:28;;;;;;;2.55;2.08;;;14.30;84.70;;;;;;10865025;32;20019;-71
2023/04/21 03:48:31;;;;;;;3.22;1.95;;;14.30;84.70;;;;;;10864977;32;20024;-71
2023/04/21 03:54:33;;;;;;;4.37;2.78;;;14.30;84.70;;;;;;10863948;32;20015;-71
2023/04/21 04:00:35;;;;;;;2.70;1.80;;;14.30;84.90;;;;;;10865970;32;20050;-72
2023/04/21 04:06:37;;;;;;;1.62;1.35;;;14.30;84.90;;;;;;10862576;32;20015;-71
2023/04/21 04:12:39;;;;;;;4.03;2.40;;;14.30;84.90;;;;;;10865791;32;20390;-71
2023/04/21 04:18:41;;;;;;;2.90;2.35;;;14.20;84.90;;;;;;10864718;32;20070;-71
2023/04/21 04:24:44;;;;;;;3.22;2.20;;;14.30;84.80;;;;;;10864785;32;20019;-72
2023/04/21 04:30:45;;;;;;;3.05;1.95;;;14.20;84.70;;;;;;10872501;32;20015;-72
2023/04/21 04:36:49;;;;;;;2.72;1.90;;;14.20;84.70;;;;;;10871936;32;20042;-71
2023/04/21 04:42:51;;;;;;;2.17;1.50;;;14.20;84.70;;;;;;10872896;32;20303;-71
2023/04/21 04:48:53;;;;;;;4.45;2.47;;;14.20;84.80;;;;;;10870741;32;20240;-71
2023/04/21 04:55:54;;;;;;;1.48;1.23;;;14.20;84.90;;;;;;10870562;32;20444;-72
2023/04/21 05:01:56;;;;;;;1.45;1.25;;;14.20;85.10;;;;;;10870452;32;20027;-71
2023/04/21 05:14:26;;;;;;;3.53;2.45;;;14.20;85.20;;;;;;10865518;32;20070;-72
2023/04/21 05:20:28;;;;;;;3.25;2.30;;;14.20;85.20;;;;;;10871092;32;20370;-72
2023/04/21 05:26:30;;;;;;;3.97;2.65;;;14.20;85.30;;;;;;10856659;32;20077;-71
2023/04/21 05:32:32;;;;;;;3.15;2.05;;;14.30;85.40;;;;;;10869610;32;20063;-71
2023/04/21 05:38:35;;;;;;;4.55;1.90;;;14.40;85.40;;;;;;10869374;32;20054;-72
2023/04/21 05:44:38;;;;;;;2.97;1.90;;;14.40;85.40;;;;;;10855020;32;20299;-72
2023/04/21 05:50:40;;;;;;;3.12;2.08;;;14.40;85.40;;;;;;10869325;32;20019;-71
2023/04/21 05:56:42;;;;;;;2.95;1.80;;;14.50;85.40;;;;;;10854423;32;20063;-72
2023/04/21 06:02:44;;;;;;;4.22;2.15;;;14.50;85.30;;;;;;10864897;32;20058;-72
2023/04/21 06:08:46;;;;;;;5.32;3.22;;;14.60;85.40;;;;;;10867771;32;20019;-73
2023/04/21 06:14:49;;;;;;;4.22;2.20;;;14.60;85.40;;;;;;10867670;32;20428;-73
2023/04/21 06:20:52;;;;;;;3.50;2.85;;;14.70;85.30;;;;;;10867542;32;20046;-73
2023/04/21 06:26:55;;;;;;;3.42;2.67;;;14.70;85.30;;;;;;10852993;32;20077;-73
2023/04/21 06:32:57;;;;;;;3.05;2.75;;;14.70;85.30;;;;;;10853483;32;20050;-73
2023/04/21 06:38:59;;;;;;;4.82;3.25;;;14.60;85.40;;;;;;10867578;32;20370;-73
2023/04/21 06:45:01;;;;;;;7.30;4.00;;;14.80;85.20;;;;;;10865233;32;20478;-73
2023/04/21 06:51:04;;;;;;;6.32;3.70;;;15.00;85.00;;;;;;10829340;32;20440;-73
2023/04/21 06:57:06;;;;;;;6.45;4.07;;;15.10;84.80;;;;;;10829710;32;20015;-73
2023/04/21 07:03:08;;;;;;;5.00;3.30;;;15.10;85.00;;;;;;10829253;32;20024;-73
2023/04/21 07:09:10;;;;;;;14.35;6.97;;;15.30;85.00;;;;;;10830016;32;20042;-73
2023/04/21 07:15:12;;;;;;;12.18;5.78;;;15.40;84.50;;;;;;10828553;32;20078;-73
2023/04/21 07:21:14;;;;;;;6.40;4.30;;;15.40;84.40;;;;;;10826676;32;20319;-73
2023/04/21 07:27:18;;;;;;;5.65;3.55;;;15.50;84.50;;;;;;10826450;32;20038;-73
2023/04/21 07:33:24;;;;;;;5.65;3.17;;;15.60;84.30;;;;;;10826563;32;20028;-73
2023/04/21 07:39:26;;;;;;;4.72;3.45;;;15.70;84.10;;;;;;10828747;32;20023;-74
2023/04/21 07:45:30;;;;;;;5.85;3.37;;;15.70;83.80;;;;;;10828117;32;20051;-73
2023/04/21 07:51:32;;;;;;;6.00;3.75;;;15.80;83.50;;;;;;10841584;27;20300;-72
2023/04/21 07:57:37;;;;;;;6.68;4.03;;;16.00;83.30;;;;;;10866754;32;20024;-71
2023/04/21 08:03:39;;;;;;;6.35;4.32;;;16.20;82.50;;;;;;10870868;32;20023;-72
2023/04/21 08:09:41;;;;;;;6.75;4.93;;;16.30;82.60;;;;;;10857994;32;20032;-73
2023/04/21 08:15:43;;;;;;;6.55;4.32;;;16.40;81.90;;;;;;10868820;32;20058;-72
2023/04/21 08:21:45;;;;;;;8.10;3.90;;;16.60;82.10;;;;;;10858137;32;20479;-74
2023/04/21 08:27:48;;;;;;;6.00;3.95;;;16.70;81.80;;;;;;10858509;32;20035;-73
2023/04/21 08:33:50;;;;;;;4.93;3.40;;;16.70;81.40;;;;;;10871071;32;20019;-75
2023/04/21 08:39:53;;;;;;;4.80;3.50;;;16.80;82.10;;;;;;10845627;32;20035;-72
2023/04/21 08:45:56;;;;;;;8.63;6.32;;;16.80;81.90;;;;;;10865586;32;20082;-71
2023/04/21 08:51:59;;;;;;;8.77;6.00;;;16.90;81.30;;;;;;10863946;32;20032;-71
2023/04/21 08:58:05;;;;;;;6.95;4.60;;;17.10;80.50;;;;;;10849108;32;20248;-74
2023/04/21 09:04:17;;;;;;;6.68;4.22;;;17.20;80.00;;;;;;10840469;32;20082;-71
2023/04/21 09:10:23;;;;;;;7.43;4.37;;;17.30;79.70;;;;;;10861600;32;20031;-72
2023/04/21 09:16:32;;;;;;;8.40;5.80;;;17.30;78.50;;;;;;10870829;32;20387;-71
2023/04/21 09:22:37;;;;;;;7.95;4.80;;;17.40;77.90;;;;;;10870699;32;20016;-71
2023/04/21 09:28:44;;;;;;;9.80;7.10;;;17.60;77.90;;;;;;10870285;32;20023;-72
2023/04/21 09:34:46;;;;;;;6.78;4.55;;;17.70;77.90;;;;;;10869916;32;20038;-71
2023/04/21 09:40:58;;;;;;;10.75;4.45;;;17.80;77.70;;;;;;10870089;32;20046;-71
2023/04/21 09:47:01;;;;;;;6.97;5.10;;;17.90;77.60;;;;;;10865856;32;20282;-72
2023/04/21 09:53:06;;;;;;;6.87;5.12;;;18.10;76.50;;;;;;10849815;32;20066;-75
2023/04/21 09:59:15;;;;;;;7.50;4.62;;;18.20;76.60;;;;;;10856691;32;20027;-73
2023/04/21 10:05:17;;;;;;;12.77;5.57;;;18.30;75.80;;;;;;10860939;32;20028;-73
2023/04/21 10:11:20;;;;;;;7.85;5.55;;;18.30;76.20;;;;;;10851726;32;20030;-74
2023/04/21 10:17:24;;;;;;;5.70;3.35;;;18.20;76.10;;;;;;10855392;32;20019;-73
2023/04/21 10:23:27;;;;;;;7.05;4.85;;;18.30;76.50;;;;;;10866097;32;20019;-74
2023/04/21 10:29:32;;;;;;;5.85;4.20;;;18.30;75.70;;;;;;10867889;32;20043;-73
2023/04/21 10:36:00;;;;;;;11.43;6.55;;;18.60;76.10;;;;;;10867551;32;20314;-73
2023/04/21 10:42:23;;;;;;;6.40;4.28;;;18.80;76.00;;;;;;10866954;32;20050;-76
2023/04/21 10:48:25;;;;;;;7.28;5.03;;;18.80;74.90;;;;;;10849811;32;20015;-73
2023/04/21 10:54:44;;;;;;;9.10;6.75;;;19.00;75.30;;;;;;10864340;32;20024;-73
2023/04/21 11:00:52;;;;;;;6.72;5.62;;;19.10;73.70;;;;;;10851200;32;20027;-73
2023/04/21 11:07:05;;;;;;;8.77;5.47;;;19.20;74.00;;;;;;10863992;32;20035;-73
2023/04/21 11:13:07;;;;;;;6.70;4.25;;;19.50;74.00;;;;;;10858762;32;20055;-72
2023/04/21 11:19:09;;;;;;;5.57;3.47;;;19.90;73.20;;;;;;10897648;32;20015;-73
2023/04/21 11:25:18;;;;;;;5.60;3.40;;;20.40;71.00;;;;;;10862964;32;20338;-72
2023/04/21 11:31:20;;;;;;;6.47;3.90;;;20.80;69.90;;;;;;10862991;32;20012;-71
2023/04/21 11:37:25;;;;;;;5.43;3.72;;;21.10;69.00;;;;;;10866645;32;20042;-71
2023/04/21 11:43:27;;;;;;;5.75;3.28;;;21.30;69.00;;;;;;10849192;32;20070;-71
2023/04/21 11:49:31;;;;;;;7.32;5.93;;;21.40;69.30;;;;;;10866363;32;20019;-71
2023/04/21 11:55:33;;;;;;;5.32;3.37;;;21.50;67.00;;;;;;10864246;32;20091;-73
2023/04/21 12:01:52;;;;;;;5.65;3.25;;;21.80;64.40;;;;;;10863529;32;20345;-72
2023/04/21 12:07:54;;;;;;;;;;;21.90;62.90;;;;;;10860969;32;20024;-73
2023/04/21 12:13:57;;;;;;;5.78;2.97;;;22.20;61.80;;;;;;10848401;32;19923;-72
2023/04/21 12:20:06;;;;;;;4.75;3.42;;;22.40;60.80;;;;;;10846809;32;20031;-72
2023/04/21 12:26:08;;;;;;;5.15;3.33;;;22.70;60.10;;;;;;10865390;32;20402;-72
2023/04/21 12:32:10;;;;;;;3.47;2.22;;;22.70;59.30;;;;;;10865892;32;20023;-71
2023/04/21 12:38:13;;;;;;;5.85;3.10;;;22.80;59.00;;;;;;10865415;32;20059;-71
2023/04/21 12:44:15;;;;;;;6.82;4.15;;;22.90;59.20;;;;;;10865738;32;20314;-72
2023/04/21 12:50:17;;;;;;;5.43;2.70;;;22.80;61.30;;;;;;10856731;32;20070;-73
2023/04/21 12:56:19;;;;;;;3.60;2.62;;;22.70;61.40;;;;;;10871311;32;20019;-73
2023/04/21 13:02:22;;;;;;;3.97;2.92;;;22.60;61.80;;;;;;10870100;32;20032;-72
2023/04/21 13:08:24;;;;;;;5.72;3.37;;;22.00;62.80;;;;;;10885341;32;20042;-73
2023/04/21 13:14:27;;;;;;;3.83;2.95;;;21.80;63.30;;;;;;10909860;32;20053;-73
2023/04/21 13:20:29;;;;;;;7.50;4.62;;;21.80;62.80;;;;;;10909477;32;20050;-72
2023/04/21 13:26:33;;;;;;;5.90;2.87;;;22.20;62.00;;;;;;10908012;32;20020;-73
2023/04/21 13:32:36;;;;;;;6.62;4.37;;;22.60;60.60;;;;;;10908109;32;20023;-72
2023/04/21 13:39:04;;;;;;;6.30;3.37;;;22.80;58.60;;;;;;10908199;32;20054;-72
2023/04/21 13:45:07;;;;;;;5.18;3.65;;;22.30;59.70;;;;;;10881990;32;20043;-73
2023/04/21 13:51:09;;;;;;;5.78;4.03;;;22.00;60.70;;;;;;10893805;32;20031;-73
2023/04/21 13:57:11;;;;;;;4.18;3.03;;;21.80;61.70;;;;;;10906600;32;20090;-72
2023/04/21 14:03:13;;;;;;;6.32;4.30;;;21.70;61.80;;;;;;10893705;32;20384;-72
2023/04/21 14:09:15;;;;;;;4.40;2.97;;;21.70;62.10;;;;;;10872601;32;20036;-72
2023/04/21 14:15:17;;;;;;;5.90;3.42;;;21.50;62.20;;;;;;10870236;32;20020;-71
2023/04/21 14:21:19;;;;;;;3.50;2.30;;;21.50;63.40;;;;;;10866587;32;20390;-72
2023/04/21 14:27:21;;;;;;;5.65;2.97;;;21.50;62.60;;;;;;10869177;32;20046;-71
2023/04/21 14:33:23;;;;;;;4.20;2.75;;;21.60;62.10;;;;;;10868946;32;20052;-72
2023/04/21 14:39:25;;;;;;;3.55;2.53;;;21.60;61.50;;;;;;10851835;32;20402;-71
2023/04/21 14:45:29;;;;;;;4.12;2.40;;;22.00;60.60;;;;;;10869022;32;20042;-72
2023/04/21 14:51:31;;;;;;;5.50;3.12;;;22.60;59.60;;;;;;10867794;32;20405;-72
2023/04/21 14:57:33;;;;;;;4.22;2.50;;;23.20;58.90;;;;;;10853868;32;20071;-72
2023/04/21 15:03:36;;;;;;;6.62;3.83;;;23.40;57.10;;;;;;10868602;32;20032;-72
2023/04/21 15:09:38;;;;;;;3.70;2.55;;;23.30;56.60;;;;;;10868723;32;20020;-72
2023/04/21 15:15:40;;;;;;;5.10;2.75;;;23.30;56.70;;;;;;10868523;32;20386;-75
2023/04/21 15:21:42;;;;;;;4.32;2.83;;;23.50;56.00;;;;;;10865866;32;20066;-73
2023/04/21 15:27:44;;;;;;;5.20;3.62;;;23.70;56.10;;;;;;10865568;32;20422;-74
2023/04/21 15:33:47;;;;;;;5.12;3.17;;;23.80;54.50;;;;;;10867191;32;20044;-73
2023/04/21 15:39:49;;;;;;;4.60;2.80;;;23.80;54.50;;;;;;10867680;32;20046;-72
2023/04/21 15:45:51;;;;;;;4.78;3.15;;;23.90;54.00;;;;;;10867063;32;20020;-72
2023/04/21 15:51:54;;;;;;;7.62;4.05;;;24.10;53.70;;;;;;10904672;27;20014;-72
2023/04/21 15:57:56;;;;;;;4.65;3.03;;;24.30;53.00;;;;;;10980121;32;20328;-72
2023/04/21 16:03:58;;;;;;;4.47;3.05;;;24.30;53.00;;;;;;10964787;32;20068;-73
2023/04/21 16:10:00;;;;;;;4.30;2.72;;;23.70;54.10;;;;;;10979581;32;20018;-73
2023/04/21 16:16:02;;;;;;;3.80;2.33;;;23.20;55.30;;;;;;10979382;32;20423;-73
2023/04/21 16:22:05;;;;;;;3.83;2.28;;;22.80;55.60;;;;;;10967939;32;20412;-73
2023/04/21 16:28:08;;;;;;;4.75;2.97;;;22.70;56.20;;;;;;10986030;32;20304;-71
2023/04/21 16:34:12;;;;;;;4.95;3.55;;;22.60;55.70;;;;;;10972275;32;20026;-71
2023/04/21 16:40:14;;;;;;;5.75;2.83;;;22.20;56.60;;;;;;10942436;32;20054;-70
2023/04/21 16:46:16;;;;;;;3.95;2.72;;;22.00;57.20;;;;;;10948215;32;20333;-70
2023/04/21 16:52:18;;;;;;;6.60;3.08;;;22.30;56.80;;;;;;10947298;32;20015;-71
2023/04/21 16:58:23;;;;;;;7.75;3.75;;;22.30;56.30;;;;;;10947826;32;20023;-70
2023/04/21 17:04:25;;;;;;;3.72;2.33;;;22.00;57.20;;;;;;10932364;32;20066;-71
2023/04/21 17:10:27;;;;;;;3.78;2.33;;;21.80;57.40;;;;;;10931147;32;20045;-73
2023/04/21 17:16:29;;;;;;;2.62;1.75;;;21.50;58.00;;;;;;10946635;32;20344;-72
2023/04/21 17:22:31;;;;;;;2.20;1.92;;;21.30;58.40;;;;;;10943124;32;20337;-72
2023/04/21 17:28:33;;;;;;;2.70;1.90;;;21.20;58.90;;;;;;10946488;32;20038;-72
2023/04/21 17:34:36;;;;;;;4.05;2.10;;;21.10;59.10;;;;;;10946124;32;20049;-72
2023/04/21 17:40:38;;;;;;;2.42;1.77;;;20.90;59.20;;;;;;10946515;32;20023;-72
2023/04/21 17:46:42;;;;;;;3.25;1.80;;;20.80;59.40;;;;;;10946426;32;20397;-72
2023/04/21 17:52:44;;;;;;;3.03;1.98;;;20.80;59.70;;;;;;10944080;32;20015;-72
2023/04/21 17:58:50;;;;;;;5.65;1.60;;;20.70;60.00;;;;;;10945177;32;20043;-72
2023/04/21 18:04:54;;;;;;;2.33;1.35;;;20.60;60.40;;;;;;10946066;32;20007;-72
2023/04/21 18:10:57;;;;;;;4.78;1.80;;;20.50;60.60;;;;;;10945562;32;20337;-73
2023/04/21 18:16:59;;;;;;;3.08;1.67;;;20.40;61.00;;;;;;10943478;32;20042;-73
2023/04/21 18:23:03;;;;;;;3.05;2.22;;;20.30;61.40;;;;;;10945020;32;20321;-73
2023/04/21 18:29:05;;;;;;;3.55;2.12;;;20.30;61.70;;;;;;10944959;32;20073;-73
2023/04/21 18:35:07;;;;;;;3.75;2.00;;;20.20;62.10;;;;;;10944757;32;20024;-73
2023/04/21 18:41:10;;;;;;;5.95;2.53;;;20.00;63.40;;;;;;10944267;32;20019;-73
2023/04/21 18:47:14;;;;;;;6.30;2.60;;;19.90;64.00;;;;;;10943239;32;20019;-73
2023/04/21 18:53:16;;;;;;;1.95;1.62;;;19.80;64.20;;;;;;10943666;32;20329;-73
2023/04/21 18:59:20;;;;;;;2.65;1.65;;;19.80;64.70;;;;;;10943107;32;20073;-74
2023/04/21 19:05:23;;;;;;;3.80;2.25;;;19.70;65.20;;;;;;10928625;32;20329;-73
2023/04/21 19:11:25;;;;;;;3.42;2.15;;;19.60;66.30;;;;;;10929165;32;20054;-73
2023/04/21 19:17:30;;;;;;;3.60;2.20;;;19.40;67.50;;;;;;10943152;32;20358;-73
2023/04/21 19:23:32;;;;;;;4.95;2.72;;;19.30;67.60;;;;;;10942747;32;20031;-73
2023/04/21 19:29:35;;;;;;;2.83;2.60;;;19.30;67.70;;;;;;10942701;32;20037;-73
2023/04/21 19:35:38;;;;;;;5.45;3.75;;;19.20;68.00;;;;;;10928793;32;20031;-73
2023/04/21 19:41:40;;;;;;;4.57;2.62;;;19.10;68.20;;;;;;10942334;32;20022;-73
2023/04/21 19:47:42;;;;;;;5.75;3.58;;;19.00;68.60;;;;;;10927945;32;20053;-73
2023/04/21 19:53:44;;;;;;;4.70;3.12;;;18.90;69.80;;;;;;10941605;32;20022;-72
2023/04/21 19:59:47;;;;;;;6.60;3.45;;;18.80;70.20;;;;;;10936137;32;20023;-71
2023/04/21 20:05:50;;;;;;;5.90;3.22;;;18.80;70.20;;;;;;10949841;32;20010;-72
2023/04/21 20:11:52;;;;;;;6.65;4.30;;;18.70;70.20;;;;;;10949647;32;20019;-72
2023/04/21 20:17:54;;;;;;;5.35;2.70;;;18.70;70.30;;;;;;10921795;32;20050;-72
2023/04/21 20:23:56;;;;;;;6.40;3.35;;;18.60;70.40;;;;;;10948585;32;20023;-72
2023/04/21 20:29:59;;;;;;;4.55;3.22;;;18.50;70.70;;;;;;10948996;32;20301;-71
2023/04/21 20:36:06;;;;;;;5.43;3.85;;;18.50;71.00;;;;;;10949064;32;20325;-72
2023/04/21 20:42:08;;;;;;;5.20;3.67;;;18.40;71.10;;;;;;10948018;32;20015;-72
2023/04/21 20:48:11;;;;;;;11.38;8.65;;;18.30;71.30;;;;;;10935620;32;20011;-70
2023/04/21 20:54:13;;;;;;;7.57;4.68;;;18.20;71.70;;;;;;10947538;32;20389;-73
2023/04/21 21:00:16;;;;;;;8.95;5.03;;;18.10;72.10;;;;;;10945094;32;20059;-72
2023/04/21 21:06:18;;;;;;;10.10;7.22;;;18.10;72.30;;;;;;10946997;32;20011;-71
2023/04/21 21:12:21;;;;;;;10.52;6.35;;;17.90;72.30;;;;;;10946913;32;20023;-71
2023/04/21 21:18:23;;;;;;;5.12;4.22;;;17.70;73.50;;;;;;10928431;32;20045;-71
2023/04/21 21:24:27;;;;;;;5.30;3.92;;;17.80;73.40;;;;;;10933863;32;20050;-71
2023/04/21 21:30:29;;;;;;;5.22;4.50;;;17.90;73.20;;;;;;10947218;32;20041;-71
2023/04/21 21:36:32;;;;;;;7.90;4.30;;;17.90;73.10;;;;;;10946894;32;20045;-71
2023/04/21 21:42:34;;;;;;;6.00;4.05;;;18.00;73.30;;;;;;10946016;32;20037;-71
2023/04/21 21:48:36;;;;;;;6.65;5.00;;;18.00;73.20;;;;;;10932897;32;20015;-71
2023/04/21 21:54:38;;;;;;;4.78;3.40;;;18.00;73.30;;;;;;10931289;32;20035;-71
2023/04/21 22:00:41;;;;;;;6.22;4.60;;;17.90;73.40;;;;;;10946064;32;20023;-71
2023/04/21 22:06:44;;;;;;;6.70;4.53;;;17.80;73.60;;;;;;10941919;32;20045;-71
2023/04/21 22:12:46;;;;;;;6.43;3.62;;;17.80;73.70;;;;;;10942974;32;20031;-71
2023/04/21 22:18:48;;;;;;;8.52;4.95;;;17.80;73.90;;;;;;10927995;32;20023;-71
2023/04/21 22:24:51;;;;;;;11.57;4.35;;;17.80;74.00;;;;;;10979628;32;20030;-71
2023/04/21 22:30:53;;;;;;;7.22;4.62;;;17.70;74.20;;;;;;10981135;32;20022;-73
2023/04/21 22:36:56;;;;;;;9.27;5.78;;;17.70;74.20;;;;;;10980262;32;20384;-74
2023/04/21 22:42:58;;;;;;;7.18;5.53;;;17.60;74.40;;;;;;10966681;32;20035;-73
2023/04/21 22:49:03;;;;;;;7.45;4.65;;;17.40;74.50;;;;;;10967231;32;20022;-73
2023/04/21 22:55:08;;;;;;;8.10;5.40;;;17.40;74.50;;;;;;10965766;32;20030;-73
2023/04/21 23:01:10;;;;;;;6.40;4.40;;;17.30;74.70;;;;;;10981136;32;20018;-73
2023/04/21 23:07:12;;;;;;;6.93;4.82;;;17.30;74.70;;;;;;10981292;32;20033;-71
2023/04/21 23:13:14;;;;;;;6.57;4.95;;;17.30;74.90;;;;;;10978812;32;20064;-71
2023/04/21 23:19:21;;;;;;;9.45;5.95;;;17.30;75.40;;;;;;10980658;32;20030;-71
2023/04/21 23:25:25;;;;;;;13.05;9.15;;;17.30;75.50;;;;;;10980530;32;20014;-71
2023/04/21 23:31:29;;;;;;;8.95;5.72;;;17.20;75.90;;;;;;10980047;32;20014;-71
2023/04/21 23:37:31;;;;;;;7.95;5.45;;;16.90;76.50;;;;;;10965620;32;20038;-71
2023/04/21 23:43:54;;;;;;;6.00;4.82;;;16.80;76.80;;;;;;10979285;32;20006;-71
2023/04/21 23:49:57;;;;;;;7.28;5.35;;;16.80;76.80;;;;;;10979460;32;20026;-71
2023/04/21 23:56:17;;;;;;;12.77;7.65;;;16.60;76.70;;;;;;10685001;32;6937266;-71
